Webcam Castelli Romani more information Webcam Castelli Romani


Webcam Traffico live more information Webcam Traffico live


altri nostri siti meteo:

Rischio IncendiRischio Incendi

Meteo-CloudBanner Meteo-Cloud

Pomeziameteo 1Sito sul meteo

Pomeziameteo DashboardSito sul meteo

Caput FrigorisSito sul meteo

BarcellonameteoSito sul meteo

MeteoipassiSito sul meteo

ViterbometeoSito sul meteo

TortoretometeolidoSito sul meteo

MeteospinacetoSito sul meteo

MeteoardeaSito sul meteo

MeteopalestrinaSito sul meteo

MeteocastelliSito sul meteo

MeteoiserniaSito sul meteo

RomaeurmeteoSito sul meteo

MeteomarconiaSito sul meteo

CastelnuovovomanometeoSito sul meteo

MeteogonzagaSito sul meteo

MeteonetworkInvio dai a Meteonetwork

Rete Linea MeteoInvio dai a Meteonetwork

DesotermicaBanner Desotermica



Non è richiesta alcuna attenzione speciale.    Non sono presenti avvisi meteorologici di particolare rilevanza

Report METAR

   
LIRE - Pratica Di Mare(, Italy
Distanza dalla stazione: W 9 km
Dati ricevuti: 17-06-2019 23:55
Sereno  
Sereno  
   Vento: Nord 5.6 km/h
Vento: Nord 5.6 km/h
Temperatura: 19°C
P.to Rugiada: 18°C
Umidita: 94%
Barometro: 1014 hPa
Visibilita: oltre 10 km
dettagli cloud: Sereno
LIRE 172155Z 35003KT CAVOK 19/18 Q1014
LIRA - Ciampino(It-Afb/, Italy
Distanza dalla stazione: NE 16 km
Dati ricevuti: 18-06-2019 00:50
Sereno  
Sereno  
   Vento: Variabile 3.7 km/h
Vento: Variabile 3.7 km/h
Temperatura: 21°C
P.to Rugiada: 18°C
Umidita: 83%
Barometro: 1014 hPa
Visibilita: oltre 10 km
dettagli cloud: Sereno
LIRA 172250Z VRB02KT CAVOK 21/18 Q1014
LIRF - Rome/Fiumicino, Italy
Distanza dalla stazione: W 27 km
Dati ricevuti: 18-06-2019 00:50
Sereno  
Sereno  
   Vento: W 3.7 km/h
Vento: W 3.7 km/h
Temperatura: 20°C
P.to Rugiada: 19°C
Umidita: 94%
Barometro: 1014 hPa
Visibilita: oltre 10 km
dettagli cloud: Sereno
LIRF 172250Z 30002KT CAVOK 20/19 Q1014 NOSIG
LIRU - Rome/Urbe (it-Af, Italy
Distanza dalla stazione: N 31 km
Dati ricevuti: 17-06-2019 19:50
DATI Obsoleti
Sereno  
Sereno  
   Vento: S 7.4 km/h
Vento: S 7.4 km/h
Temperatura: 27°C
Indice di Calore: 28°C
P.to Rugiada: 18°C
Umidita: 58%
Barometro: 1013 hPa
Visibilita: oltre 10 km
dettagli cloud: Sereno
LIRU 171750Z 21004KT CAVOK 27/18 Q1013
LIRL - Latina (it-Afb), Italy
Distanza dalla stazione: SE 36 km
Dati ricevuti: 17-06-2019 19:55
DATI Obsoleti
Sereno  
Sereno  
   Vento: West 11.1 km/h
Vento: West 11.1 km/h
Temperatura: 26°C
P.to Rugiada: 17°C
Umidita: 58%
Barometro: 1013 hPa
Visibilita: oltre 10 km
dettagli cloud: Sereno
LIRL 171755Z 26006KT CAVOK 26/17 Q1013
LIRG - Guidonia (it-Afb, Italy
Distanza dalla stazione: NE 41 km
Dati ricevuti: 17-06-2019 19:55
DATI Obsoleti
Poche nuvole  
Poche nuvole  
   Vento: W 9.3 km/h
Vento: W 9.3 km/h
Temperatura: 28°C
Indice di Calore: 28°C
P.to Rugiada: 17°C
Umidita: 51%
Barometro: 1013 hPa
Nuvole: Poche nuvole
Visibilita: oltre 10 km
dettagli cloud: Poche nuvole 609.6 m
LIRG 171755Z 24005KT 9999 FEW020TCU 28/17 Q1013

Script sviluppato da  Saratoga-weather.org Adattato per il modello da  Weerstation Leuven

Potete trovare le nostre info meteo anche a:

European Weather Network

Weather Underground

AWEKAS

Citizen Weather Observer Program (CWOP)

HAMweather, WeatherForYou, PWS Weather

Strumentazione usata:

Stazione meteo
Davis VP2

Programma gestore dati meteo
WVIEW

Server per i dati meteo
Pc-WDS5

Provider
PC-HP-6005

Davis VP2

WVIEW

Pc-WDS5

PC-HP-6005